createdAt,value
2019-05-23T00:01:16.215Z,6.70
2019-05-23T00:04:15.351Z,6.60
2019-05-23T00:06:46.386Z,6.50
2019-05-23T00:09:16.983Z,6.60
2019-05-23T00:12:03.978Z,6.50
2019-05-23T00:14:44.105Z,6.50
2019-05-23T00:17:18.336Z,6.40
2019-05-23T00:19:51.274Z,6.40
2019-05-23T00:22:22.438Z,6.30
2019-05-23T00:24:55.890Z,6.40
2019-05-23T00:27:27.512Z,6.40
2019-05-23T00:29:58.935Z,6.40
2019-05-23T00:32:46.751Z,6.30
2019-05-23T00:35:19.486Z,6.40
2019-05-23T00:37:50.255Z,6.40
2019-05-23T00:40:21.612Z,6.40
2019-05-23T00:42:54.158Z,6.50
2019-05-23T00:45:25.396Z,6.50
2019-05-23T00:47:56.099Z,6.60
2019-05-23T00:50:27.689Z,6.50
2019-05-23T00:52:59.456Z,6.60
2019-05-23T00:55:30.480Z,6.60
2019-05-23T00:58:01.465Z,6.60
2019-05-23T01:00:32.250Z,6.60
2019-05-23T01:03:02.983Z,6.60
2019-05-23T01:05:33.927Z,6.60
2019-05-23T01:08:06.756Z,6.70
2019-05-23T01:10:38.286Z,6.60
2019-05-23T01:13:10.547Z,6.60
2019-05-23T01:15:43.433Z,6.60
2019-05-23T01:18:15.499Z,6.50
2019-05-23T01:21:07.793Z,6.50
2019-05-23T01:23:42.093Z,6.40
2019-05-23T01:26:13.585Z,6.40
2019-05-23T01:28:45.434Z,6.50
2019-05-23T01:31:20.199Z,6.40
2019-05-23T01:33:51.374Z,6.40
2019-05-23T01:36:23.218Z,6.40
2019-05-23T01:38:55.085Z,6.40
2019-05-23T01:41:26.613Z,6.30
2019-05-23T01:43:58.459Z,6.20
2019-05-23T01:46:29.816Z,6.10
2019-05-23T01:49:00.889Z,6.10
2019-05-23T01:51:33.556Z,6.00
2019-05-23T01:54:06.016Z,6.00
2019-05-23T01:56:37.333Z,6.00
2019-05-23T01:59:08.391Z,5.90
2019-05-23T02:01:41.663Z,5.90
2019-05-23T02:04:13.101Z,6.00
2019-05-23T02:06:43.920Z,5.90
2019-05-23T02:09:16.411Z,5.90
2019-05-23T02:11:49.011Z,5.90
2019-05-23T02:14:20.426Z,5.80
2019-05-23T02:16:51.754Z,5.70
2019-05-23T02:19:22.946Z,5.80
2019-05-23T02:21:53.883Z,5.80
2019-05-23T02:24:24.629Z,5.80
2019-05-23T02:26:56.086Z,5.80
2019-05-23T02:29:27.175Z,5.80
2019-05-23T02:31:58.442Z,5.80
2019-05-23T02:34:30.550Z,5.80
2019-05-23T02:37:03.350Z,5.80
2019-05-23T02:39:59.017Z,5.80
2019-05-23T02:42:41.619Z,5.90
2019-05-23T02:45:19.225Z,5.80
2019-05-23T02:47:50.623Z,5.80
2019-05-23T02:50:31.291Z,5.80
2019-05-23T02:53:03.088Z,5.70
2019-05-23T02:55:38.925Z,5.70
2019-05-23T02:58:24.541Z,5.60
2019-05-23T03:01:36.601Z,5.70
2019-05-23T03:04:12.903Z,5.70
2019-05-23T03:06:44.339Z,5.70
2019-05-23T03:09:16.805Z,5.70
2019-05-23T03:11:49.987Z,5.70
2019-05-23T03:14:22.714Z,5.60
2019-05-23T03:16:56.479Z,5.50
2019-05-23T03:19:48.619Z,5.50
2019-05-23T03:22:49.065Z,5.60
2019-05-23T03:26:35.719Z,5.60
2019-05-23T03:29:08.880Z,5.60
2019-05-23T03:31:55.648Z,5.60
2019-05-23T03:34:28.418Z,5.60
2019-05-23T03:36:59.283Z,5.50
2019-05-23T03:39:30.044Z,5.60
2019-05-23T03:42:00.988Z,5.60
2019-05-23T03:44:31.672Z,5.50
2019-05-23T03:47:04.197Z,5.40
2019-05-23T03:49:35.129Z,5.50
2019-05-23T03:52:05.787Z,5.50
2019-05-23T03:54:36.955Z,5.40
2019-05-23T03:57:08.157Z,5.40
2019-05-23T03:59:42.172Z,5.50
2019-05-23T04:02:15.734Z,5.50
2019-05-23T04:04:47.476Z,5.50
2019-05-23T04:07:18.317Z,5.50
2019-05-23T04:09:49.458Z,5.40
2019-05-23T04:12:20.731Z,5.30
2019-05-23T04:14:52.180Z,5.40
2019-05-23T04:17:22.743Z,5.40
2019-05-23T04:19:53.955Z,5.40
2019-05-23T04:22:25.770Z,5.50
2019-05-23T04:25:01.527Z,5.60
2019-05-23T04:27:29.206Z,5.60
2019-05-23T04:30:00.240Z,5.60
2019-05-23T04:32:31.171Z,5.60
2019-05-23T04:35:02.153Z,5.60
2019-05-23T04:37:32.929Z,5.60
2019-05-23T04:40:04.859Z,5.60
2019-05-23T04:42:36.035Z,5.70
2019-05-23T04:45:08.021Z,5.70
2019-05-23T04:47:40.723Z,5.70
2019-05-23T04:50:14.432Z,5.70
2019-05-23T04:52:55.728Z,5.80
2019-05-23T04:55:28.714Z,5.70
2019-05-23T04:58:04.264Z,5.80
2019-05-23T05:00:33.391Z,5.80
2019-05-23T05:03:06.202Z,5.90
2019-05-23T05:05:37.755Z,5.90
2019-05-23T05:08:08.526Z,5.90
2019-05-23T05:10:41.385Z,6.00
2019-05-23T05:13:12.323Z,6.00
2019-05-23T05:15:43.367Z,6.00
2019-05-23T05:18:14.395Z,6.00
2019-05-23T05:20:45.311Z,6.00
2019-05-23T05:23:16.167Z,6.20
2019-05-23T05:25:46.833Z,6.20
2019-05-23T05:28:17.385Z,6.30
2019-05-23T05:30:48.317Z,6.40
2019-05-23T05:33:19.576Z,6.30
2019-05-23T05:35:50.737Z,6.30
2019-05-23T05:38:21.479Z,6.40
2019-05-23T05:40:52.702Z,6.40
2019-05-23T05:43:23.799Z,6.60
2019-05-23T05:45:55.184Z,6.50
2019-05-23T05:48:26.633Z,6.70
2019-05-23T05:50:57.612Z,6.70
2019-05-23T05:53:28.370Z,6.80
2019-05-23T05:55:59.349Z,6.90
2019-05-23T05:58:30.092Z,7.10
2019-05-23T06:01:02.863Z,7.00
2019-05-23T06:03:33.420Z,7.40
2019-05-23T06:06:11.224Z,7.60
2019-05-23T06:08:44.057Z,7.80
2019-05-23T06:11:16.299Z,7.90
2019-05-23T06:13:47.293Z,8.00
2019-05-23T06:16:18.074Z,8.30
2019-05-23T06:18:49.122Z,8.80
2019-05-23T06:21:28.767Z,9.20
2019-05-23T06:24:00.195Z,9.00
2019-05-23T06:26:31.264Z,9.50
2019-05-23T06:29:02.119Z,10.30
2019-05-23T06:31:33.597Z,10.90
2019-05-23T06:34:04.823Z,11.60
2019-05-23T06:36:35.864Z,12.20
2019-05-23T06:39:10.616Z,12.30
2019-05-23T06:41:41.852Z,12.80
2019-05-23T06:44:13.959Z,13.10
2019-05-23T06:46:46.406Z,13.40
2019-05-23T06:49:18.141Z,12.90
2019-05-23T06:51:48.731Z,13.40
2019-05-23T06:54:19.391Z,13.20
2019-05-23T06:56:50.691Z,13.20
2019-05-23T06:59:22.295Z,12.80
2019-05-23T07:01:53.094Z,13.50
2019-05-23T07:04:24.201Z,14.10
2019-05-23T07:06:55.368Z,15.00
2019-05-23T07:09:26.177Z,14.40
2019-05-23T07:11:59.797Z,15.20
2019-05-23T07:14:32.004Z,14.60
2019-05-23T07:17:02.656Z,14.20
2019-05-23T07:19:33.553Z,15.60
2019-05-23T07:22:04.887Z,16.20
2019-05-23T07:24:36.062Z,16.30
2019-05-23T07:27:06.722Z,16.40
2019-05-23T07:29:37.559Z,15.20
2019-05-23T07:32:09.228Z,15.90
2019-05-23T07:34:40.841Z,16.80
2019-05-23T07:37:11.731Z,15.70
2019-05-23T07:39:42.708Z,16.30
2019-05-23T07:42:14.673Z,17.00
2019-05-23T07:44:48.597Z,16.00
2019-05-23T07:47:20.353Z,16.80
2019-05-23T07:49:51.375Z,16.30
2019-05-23T07:52:22.042Z,17.10
2019-05-23T07:54:58.858Z,17.60
2019-05-23T07:57:30.117Z,17.80
2019-05-23T08:00:02.624Z,17.40
2019-05-23T08:02:37.257Z,16.90
2019-05-23T08:05:08.294Z,17.00
2019-05-23T08:07:40.983Z,17.60
2019-05-23T08:10:12.011Z,18.00
2019-05-23T08:12:42.836Z,19.00
2019-05-23T08:15:15.543Z,19.40
2019-05-23T08:17:47.235Z,19.60
2019-05-23T08:20:18.411Z,19.30
2019-05-23T08:22:49.434Z,20.00
2019-05-23T08:25:20.348Z,20.70
2019-05-23T08:27:51.373Z,20.70
2019-05-23T08:30:24.168Z,19.80
2019-05-23T08:32:55.522Z,18.10
2019-05-23T08:35:26.900Z,18.30
2019-05-23T08:37:58.974Z,18.70
2019-05-23T08:40:30.800Z,19.30
2019-05-23T08:43:02.593Z,19.70
2019-05-23T08:45:33.803Z,19.90
2019-05-23T08:48:05.890Z,20.50
2019-05-23T08:50:37.646Z,19.60
2019-05-23T08:53:09.053Z,18.10
2019-05-23T08:55:41.337Z,18.40
2019-05-23T08:58:13.706Z,18.70
2019-05-23T09:00:45.949Z,19.00
2019-05-23T09:03:17.258Z,18.60
2019-05-23T09:05:49.705Z,18.70
2019-05-23T09:08:22.319Z,18.70
2019-05-23T09:10:53.610Z,19.30
2019-05-23T09:13:24.841Z,20.30
2019-05-23T09:15:56.032Z,19.50
2019-05-23T09:18:27.197Z,20.10
2019-05-23T09:20:58.076Z,20.10
2019-05-23T09:23:29.266Z,19.80
2019-05-23T09:26:00.301Z,19.80
2019-05-23T09:28:31.369Z,19.60
2019-05-23T09:31:04.530Z,20.10
2019-05-23T09:33:35.748Z,19.70
2019-05-23T09:36:07.526Z,19.50
2019-05-23T09:38:38.538Z,19.10
2019-05-23T09:41:09.576Z,18.70
2019-05-23T09:43:41.265Z,18.60
2019-05-23T09:46:12.556Z,19.20
2019-05-23T09:48:43.452Z,19.40
2019-05-23T09:51:14.905Z,19.90
2019-05-23T09:53:47.452Z,19.90
2019-05-23T09:56:18.549Z,19.50
2019-05-23T09:58:49.594Z,19.30
2019-05-23T10:01:20.651Z,19.90
2019-05-23T10:03:51.388Z,20.30
2019-05-23T10:06:22.324Z,20.90
2019-05-23T10:08:53.290Z,21.00
2019-05-23T10:11:24.484Z,21.20
2019-05-23T10:13:55.445Z,20.30
2019-05-23T10:16:26.780Z,20.20
2019-05-23T10:18:57.386Z,20.40
2019-05-23T10:21:30.023Z,19.60
2019-05-23T10:24:00.937Z,19.80
2019-05-23T10:26:31.889Z,19.60
2019-05-23T10:29:02.645Z,19.30
2019-05-23T10:31:33.831Z,20.00
2019-05-23T10:34:05.288Z,19.70
2019-05-23T10:36:36.224Z,19.40
2019-05-23T10:39:09.990Z,19.10
2019-05-23T10:41:41.680Z,19.50
2019-05-23T10:44:12.612Z,19.40
2019-05-23T10:46:43.761Z,19.30
2019-05-23T10:49:14.655Z,19.40
2019-05-23T10:51:45.719Z,19.20
2019-05-23T10:54:17.203Z,19.40
2019-05-23T10:56:48.118Z,19.60
2019-05-23T10:59:19.202Z,19.40
2019-05-23T11:01:50.744Z,19.50
2019-05-23T11:04:22.116Z,19.10
2019-05-23T11:06:53.568Z,18.90
2019-05-23T11:09:37.247Z,18.80
2019-05-23T11:11:58.347Z,18.70
2019-05-23T11:14:29.209Z,18.60
2019-05-23T11:17:00.423Z,18.90
2019-05-23T11:19:31.420Z,18.60
2019-05-23T11:22:02.568Z,18.90
2019-05-23T11:24:33.492Z,19.00
2019-05-23T11:27:04.750Z,18.80
2019-05-23T11:29:35.830Z,18.70
2019-05-23T11:32:08.515Z,18.40
2019-05-23T11:34:40.581Z,19.10
2019-05-23T11:37:11.943Z,18.80
2019-05-23T11:39:50.096Z,18.90
2019-05-23T11:42:15.219Z,19.40
2019-05-23T11:44:46.348Z,19.70
2019-05-23T11:47:18.649Z,19.80
2019-05-23T11:49:50.289Z,19.60
2019-05-23T11:52:21.938Z,19.80
2019-05-23T11:54:55.359Z,19.70
2019-05-23T11:57:26.724Z,19.50
2019-05-23T11:59:57.838Z,19.40
2019-05-23T12:02:42.265Z,19.10
2019-05-23T12:05:18.961Z,19.00
2019-05-23T12:07:50.394Z,18.60
2019-05-23T12:10:21.824Z,18.20
2019-05-23T12:12:52.424Z,17.90
2019-05-23T12:15:29.542Z,18.10
2019-05-23T12:18:02.533Z,18.40
2019-05-23T12:20:33.829Z,18.60
2019-05-23T12:23:10.507Z,18.80
2019-05-23T12:25:37.849Z,18.90
2019-05-23T12:28:08.908Z,18.60
2019-05-23T12:30:41.209Z,18.20
2019-05-23T12:33:12.148Z,18.00
2019-05-23T12:35:43.593Z,18.00
2019-05-23T12:38:14.739Z,18.00
2019-05-23T12:40:45.935Z,17.90
2019-05-23T12:43:17.078Z,18.10
2019-05-23T12:45:47.800Z,18.70
2019-05-23T12:48:28.784Z,18.90
2019-05-23T12:50:59.922Z,18.90
2019-05-23T12:53:31.153Z,18.80
2019-05-23T12:56:02.434Z,18.60
2019-05-23T12:58:34.127Z,18.80
2019-05-23T13:01:07.089Z,18.50
2019-05-23T13:03:39.083Z,18.30
2019-05-23T13:06:10.580Z,18.30
2019-05-23T13:08:42.133Z,18.20
2019-05-23T13:11:12.808Z,18.30
2019-05-23T13:13:43.867Z,18.60
2019-05-23T13:16:14.811Z,19.10
2019-05-23T13:18:45.737Z,19.40
2019-05-23T13:21:16.807Z,19.30
2019-05-23T13:23:47.449Z,19.20
2019-05-23T13:26:18.479Z,19.20
2019-05-23T13:28:49.547Z,19.30
2019-05-23T13:31:20.691Z,19.10
2019-05-23T13:33:51.388Z,18.90
2019-05-23T13:36:22.499Z,18.60
2019-05-23T13:38:53.725Z,18.40
2019-05-23T13:41:24.604Z,18.20
2019-05-23T13:43:55.514Z,18.20
2019-05-23T13:46:26.594Z,18.40
2019-05-23T13:49:26.547Z,18.70
2019-05-23T13:51:57.486Z,18.70
2019-05-23T13:54:28.681Z,18.80
2019-05-23T13:56:59.531Z,18.90
2019-05-23T13:59:42.061Z,18.70
2019-05-23T14:02:22.437Z,18.70
2019-05-23T14:04:53.526Z,18.60
2019-05-23T14:07:25.863Z,18.50
2019-05-23T14:10:10.025Z,18.60
2019-05-23T14:12:42.025Z,18.50
2019-05-23T14:15:15.605Z,18.50
2019-05-23T14:17:46.962Z,18.50
2019-05-23T14:20:18.388Z,18.60
2019-05-23T14:22:54.727Z,18.40
2019-05-23T14:25:25.851Z,18.30
2019-05-23T14:28:06.383Z,18.40
2019-05-23T14:30:52.014Z,18.40
2019-05-23T14:33:45.870Z,18.40
2019-05-23T14:36:37.100Z,18.10
2019-05-23T14:39:15.187Z,17.90
2019-05-23T14:41:53.338Z,17.80
2019-05-23T14:44:28.342Z,17.80
2019-05-23T14:47:17.324Z,17.70
2019-05-23T14:49:57.055Z,17.80
2019-05-23T14:52:34.704Z,17.70
2019-05-23T14:55:10.431Z,17.70
2019-05-23T14:57:50.134Z,17.80
2019-05-23T15:00:22.874Z,18.00
2019-05-23T15:02:53.814Z,17.90
2019-05-23T15:05:26.229Z,17.70
2019-05-23T15:07:59.551Z,17.80
2019-05-23T15:10:35.934Z,17.70
2019-05-23T15:13:10.419Z,17.60
2019-05-23T15:15:43.381Z,17.40
2019-05-23T15:18:14.176Z,17.50
2019-05-23T15:20:45.270Z,17.30
2019-05-23T15:23:20.587Z,17.20
2019-05-23T15:25:55.631Z,17.00
2019-05-23T15:28:25.977Z,17.10
2019-05-23T15:30:57.490Z,17.20
2019-05-23T15:33:28.824Z,17.30
2019-05-23T15:36:00.064Z,16.90
2019-05-23T15:38:31.697Z,16.90
2019-05-23T15:41:03.708Z,17.00
2019-05-23T15:43:42.766Z,17.00
2019-05-23T15:46:13.737Z,16.80
2019-05-23T15:48:50.839Z,16.80
2019-05-23T15:51:37.091Z,17.00
2019-05-23T15:54:14.225Z,16.90
2019-05-23T15:57:06.381Z,16.50
2019-05-23T15:59:59.375Z,16.50
2019-05-23T16:02:53.365Z,16.60
2019-05-23T16:05:27.290Z,16.60
2019-05-23T16:08:02.882Z,16.50
2019-05-23T16:10:34.718Z,16.40
2019-05-23T16:13:05.581Z,16.50
2019-05-23T16:15:37.355Z,16.60
2019-05-23T16:18:08.814Z,16.40
2019-05-23T16:20:41.021Z,16.30
2019-05-23T16:23:11.942Z,16.30
2019-05-23T16:25:53.630Z,16.40
2019-05-23T16:28:58.387Z,16.30
2019-05-23T16:31:29.079Z,16.50
2019-05-23T16:34:00.526Z,16.40
2019-05-23T16:36:31.145Z,16.30
2019-05-23T16:39:02.085Z,16.30
2019-05-23T16:41:34.658Z,16.10
2019-05-23T16:44:06.399Z,16.00
2019-05-23T16:46:37.046Z,16.00
2019-05-23T16:49:19.561Z,16.00
2019-05-23T16:51:50.972Z,16.20
2019-05-23T16:54:25.400Z,16.10
2019-05-23T16:57:26.151Z,16.10
2019-05-23T17:00:26.406Z,16.00
2019-05-23T17:03:17.481Z,16.00
2019-05-23T17:06:06.103Z,16.00
2019-05-23T17:09:01.431Z,15.90
2019-05-23T17:11:43.837Z,15.70
2019-05-23T17:14:26.736Z,15.80
2019-05-23T17:17:49.123Z,15.80
2019-05-23T17:20:19.015Z,15.80
2019-05-23T17:23:00.454Z,15.90
2019-05-23T17:25:41.615Z,16.00
2019-05-23T17:28:20.609Z,15.90
2019-05-23T17:30:56.163Z,15.80
2019-05-23T17:33:26.859Z,15.90
2019-05-23T17:35:58.328Z,15.90
2019-05-23T17:38:32.775Z,15.90
2019-05-23T17:41:04.641Z,15.90
2019-05-23T17:43:35.758Z,15.80
2019-05-23T17:46:06.614Z,15.80
2019-05-23T17:48:37.305Z,15.90
2019-05-23T17:51:08.002Z,15.90
2019-05-23T17:53:46.186Z,15.80
2019-05-23T17:56:18.135Z,15.90
2019-05-23T17:58:49.337Z,15.80
2019-05-23T18:01:20.441Z,15.80
2019-05-23T18:03:51.061Z,15.70
2019-05-23T18:06:24.303Z,15.70
2019-05-23T18:08:56.150Z,15.50
2019-05-23T18:11:26.919Z,15.50
2019-05-23T18:13:58.907Z,15.50
2019-05-23T18:16:32.941Z,15.50
2019-05-23T18:19:18.627Z,15.50
2019-05-23T18:21:55.866Z,15.50
2019-05-23T18:24:27.010Z,15.40
2019-05-23T18:27:02.434Z,15.30
2019-05-23T18:29:33.925Z,15.10
2019-05-23T18:32:21.224Z,15.00
2019-05-23T18:34:52.094Z,15.00
2019-05-23T18:37:22.821Z,15.00
2019-05-23T18:39:58.052Z,14.90
2019-05-23T18:42:29.304Z,14.90
2019-05-23T18:45:00.189Z,15.00
2019-05-23T18:47:37.047Z,14.80
2019-05-23T18:50:09.941Z,14.70
2019-05-23T18:52:42.575Z,14.50
2019-05-23T18:55:17.673Z,14.50
2019-05-23T18:57:51.656Z,14.40
2019-05-23T19:00:53.911Z,14.20
2019-05-23T19:03:25.239Z,14.20
2019-05-23T19:05:56.466Z,14.10
2019-05-23T19:08:27.352Z,14.10
2019-05-23T19:10:58.445Z,14.00
2019-05-23T19:13:29.531Z,14.00
2019-05-23T19:16:00.173Z,14.00
2019-05-23T19:18:31.024Z,13.90
2019-05-23T19:21:02.593Z,13.80
2019-05-23T19:23:34.089Z,13.80
2019-05-23T19:26:04.950Z,13.70
2019-05-23T19:28:35.827Z,13.60
2019-05-23T19:31:08.620Z,13.50
2019-05-23T19:33:39.519Z,13.40
2019-05-23T19:36:12.032Z,13.40
2019-05-23T19:38:42.725Z,13.30
2019-05-23T19:41:14.165Z,13.30
2019-05-23T19:43:48.031Z,13.30
2019-05-23T19:46:17.501Z,13.30
2019-05-23T19:48:48.661Z,13.20
2019-05-23T19:51:20.276Z,13.20
2019-05-23T19:53:51.522Z,13.10
2019-05-23T19:56:22.759Z,13.00
2019-05-23T19:58:53.532Z,13.00
2019-05-23T20:01:26.534Z,12.90
2019-05-23T20:03:57.603Z,12.80
2019-05-23T20:06:29.406Z,12.80
2019-05-23T20:09:01.823Z,12.70
2019-05-23T20:11:32.796Z,12.70
2019-05-23T20:14:03.530Z,12.70
2019-05-23T20:16:34.628Z,12.60
2019-05-23T20:19:05.779Z,12.60
2019-05-23T20:21:36.682Z,12.50
2019-05-23T20:24:07.421Z,12.40
2019-05-23T20:26:42.028Z,12.40
2019-05-23T20:29:12.605Z,12.40
2019-05-23T20:31:43.309Z,12.30
2019-05-23T20:34:14.367Z,12.30
2019-05-23T20:36:45.564Z,12.20
2019-05-23T20:39:17.417Z,12.20
2019-05-23T20:41:48.414Z,12.10
2019-05-23T20:44:19.219Z,12.10
2019-05-23T20:46:50.977Z,12.00
2019-05-23T20:49:21.937Z,12.10
2019-05-23T20:51:53.327Z,12.10
2019-05-23T20:54:24.467Z,12.00
2019-05-23T20:56:55.423Z,12.00
2019-05-23T20:59:26.543Z,11.90
2019-05-23T21:01:57.904Z,11.80
2019-05-23T21:04:28.759Z,11.80
2019-05-23T21:06:59.771Z,11.80
2019-05-23T21:09:30.718Z,11.80
2019-05-23T21:12:01.906Z,11.70
2019-05-23T21:14:32.654Z,11.60
2019-05-23T21:17:03.338Z,11.60
2019-05-23T21:19:34.220Z,11.60
2019-05-23T21:22:05.178Z,11.60
2019-05-23T21:24:36.401Z,11.50
2019-05-23T21:27:07.036Z,11.50
2019-05-23T21:29:37.827Z,11.40
2019-05-23T21:32:08.977Z,11.30
2019-05-23T21:34:39.763Z,11.20
2019-05-23T21:37:10.620Z,11.20
2019-05-23T21:39:42.741Z,11.20
2019-05-23T21:42:13.620Z,11.20
2019-05-23T21:44:44.636Z,11.10
2019-05-23T21:47:15.890Z,11.10
2019-05-23T21:49:46.622Z,11.00
2019-05-23T21:52:17.428Z,10.90
2019-05-23T21:54:48.551Z,10.90
2019-05-23T21:57:19.200Z,10.80
2019-05-23T21:59:51.201Z,10.80
2019-05-23T22:02:30.680Z,10.80
2019-05-23T22:05:09.329Z,10.70
2019-05-23T22:07:40.222Z,10.70
2019-05-23T22:10:11.337Z,10.70
2019-05-23T22:12:42.742Z,10.60
2019-05-23T22:15:25.143Z,10.60
2019-05-23T22:17:56.786Z,10.50
2019-05-23T22:20:27.492Z,10.40
2019-05-23T22:22:58.540Z,10.40
2019-05-23T22:25:35.475Z,10.40
2019-05-23T22:28:06.239Z,10.40
2019-05-23T22:30:37.468Z,10.40
2019-05-23T22:33:08.155Z,10.40
2019-05-23T22:35:39.319Z,10.40
2019-05-23T22:38:10.491Z,10.30
2019-05-23T22:40:43.035Z,10.30
2019-05-23T22:43:20.941Z,10.30
2019-05-23T22:45:46.804Z,10.20
2019-05-23T22:48:17.474Z,10.20
2019-05-23T22:50:48.494Z,10.20
2019-05-23T22:53:19.593Z,10.20
2019-05-23T22:55:50.369Z,10.10
2019-05-23T22:58:21.721Z,10.10
2019-05-23T23:00:52.766Z,10.00
2019-05-23T23:03:23.468Z,10.00
2019-05-23T23:05:54.449Z,9.90
2019-05-23T23:08:26.106Z,9.90
2019-05-23T23:10:57.096Z,9.90
2019-05-23T23:13:38.350Z,9.90
2019-05-23T23:16:01.637Z,9.90
2019-05-23T23:18:32.560Z,9.90
2019-05-23T23:21:03.309Z,9.70
2019-05-23T23:23:34.037Z,9.70
2019-05-23T23:26:04.648Z,9.70
2019-05-23T23:28:36.586Z,9.70
2019-05-23T23:31:07.888Z,9.60
2019-05-23T23:33:38.563Z,9.60
2019-05-23T23:36:09.406Z,9.50
2019-05-23T23:38:40.441Z,9.50
2019-05-23T23:41:11.039Z,9.40
2019-05-23T23:43:57.846Z,9.30
2019-05-23T23:46:34.027Z,9.40
2019-05-23T23:49:22.640Z,9.40
2019-05-23T23:52:11.636Z,9.30
2019-05-23T23:55:00.983Z,9.30
2019-05-23T23:57:49.317Z,9.20
